sensor_id;sensor_type;location;lat;lon;timestamp;P1;durP1;ratioP1;P2;durP2;ratioP2
31638;SDS011;18248;51.522;7.020;2023-06-19T00:00:04;7.82;;;3.90;;
31638;SDS011;18248;51.522;7.020;2023-06-19T00:03:10;4.18;;;3.75;;
31638;SDS011;18248;51.522;7.020;2023-06-19T00:06:09;4.28;;;3.50;;
31638;SDS011;18248;51.522;7.020;2023-06-19T00:09:10;4.82;;;3.58;;
31638;SDS011;18248;51.522;7.020;2023-06-19T00:12:08;6.30;;;3.78;;
31638;SDS011;18248;51.522;7.020;2023-06-19T00:15:07;5.63;;;3.72;;
31638;SDS011;18248;51.522;7.020;2023-06-19T00:18:07;5.55;;;3.50;;
31638;SDS011;18248;51.522;7.020;2023-06-19T00:21:06;7.32;;;4.05;;
31638;SDS011;18248;51.522;7.020;2023-06-19T00:24:06;4.85;;;3.83;;
31638;SDS011;18248;51.522;7.020;2023-06-19T00:27:05;6.07;;;4.05;;
31638;SDS011;18248;51.522;7.020;2023-06-19T00:30:05;9.45;;;4.20;;
31638;SDS011;18248;51.522;7.020;2023-06-19T00:33:04;5.78;;;4.05;;
31638;SDS011;18248;51.522;7.020;2023-06-19T00:36:08;5.22;;;3.75;;
31638;SDS011;18248;51.522;7.020;2023-06-19T00:39:10;6.90;;;4.30;;
31638;SDS011;18248;51.522;7.020;2023-06-19T00:42:09;8.88;;;3.83;;
31638;SDS011;18248;51.522;7.020;2023-06-19T00:45:08;4.85;;;3.97;;
31638;SDS011;18248;51.522;7.020;2023-06-19T00:48:08;5.13;;;3.75;;
31638;SDS011;18248;51.522;7.020;2023-06-19T00:51:07;5.53;;;4.15;;
31638;SDS011;18248;51.522;7.020;2023-06-19T00:54:06;6.95;;;4.50;;
31638;SDS011;18248;51.522;7.020;2023-06-19T00:57:05;5.65;;;3.97;;
31638;SDS011;18248;51.522;7.020;2023-06-19T01:00:03;7.55;;;3.88;;
31638;SDS011;18248;51.522;7.020;2023-06-19T01:03:03;7.15;;;4.50;;
31638;SDS011;18248;51.522;7.020;2023-06-19T01:06:02;4.93;;;4.43;;
31638;SDS011;18248;51.522;7.020;2023-06-19T01:09:07;7.38;;;3.90;;
31638;SDS011;18248;51.522;7.020;2023-06-19T01:12:10;4.38;;;3.88;;
31638;SDS011;18248;51.522;7.020;2023-06-19T01:15:13;5.38;;;4.00;;
31638;SDS011;18248;51.522;7.020;2023-06-19T01:18:12;7.00;;;4.28;;
31638;SDS011;18248;51.522;7.020;2023-06-19T01:21:13;5.00;;;4.30;;
31638;SDS011;18248;51.522;7.020;2023-06-19T01:24:16;5.93;;;4.53;;
31638;SDS011;18248;51.522;7.020;2023-06-19T01:27:14;5.85;;;4.10;;
31638;SDS011;18248;51.522;7.020;2023-06-19T01:30:14;6.88;;;4.35;;
31638;SDS011;18248;51.522;7.020;2023-06-19T01:33:18;4.95;;;4.35;;
31638;SDS011;18248;51.522;7.020;2023-06-19T01:36:23;6.28;;;4.20;;
31638;SDS011;18248;51.522;7.020;2023-06-19T01:39:23;5.40;;;4.50;;
31638;SDS011;18248;51.522;7.020;2023-06-19T01:42:23;7.05;;;3.95;;
31638;SDS011;18248;51.522;7.020;2023-06-19T01:45:23;4.68;;;4.15;;
31638;SDS011;18248;51.522;7.020;2023-06-19T01:48:22;6.40;;;4.07;;
31638;SDS011;18248;51.522;7.020;2023-06-19T01:51:21;6.57;;;4.18;;
31638;SDS011;18248;51.522;7.020;2023-06-19T01:54:20;4.68;;;4.03;;
31638;SDS011;18248;51.522;7.020;2023-06-19T01:57:18;7.97;;;4.78;;
31638;SDS011;18248;51.522;7.020;2023-06-19T02:00:17;5.05;;;4.35;;
31638;SDS011;18248;51.522;7.020;2023-06-19T02:03:16;5.70;;;4.40;;
31638;SDS011;18248;51.522;7.020;2023-06-19T02:06:15;5.32;;;4.00;;
31638;SDS011;18248;51.522;7.020;2023-06-19T02:09:13;5.18;;;3.80;;
31638;SDS011;18248;51.522;7.020;2023-06-19T02:12:12;6.70;;;4.15;;
31638;SDS011;18248;51.522;7.020;2023-06-19T02:15:11;5.63;;;4.75;;
31638;SDS011;18248;51.522;7.020;2023-06-19T02:18:09;6.90;;;4.88;;
31638;SDS011;18248;51.522;7.020;2023-06-19T02:21:08;8.98;;;3.80;;
31638;SDS011;18248;51.522;7.020;2023-06-19T02:24:06;5.47;;;4.15;;
31638;SDS011;18248;51.522;7.020;2023-06-19T02:27:05;5.32;;;4.20;;
31638;SDS011;18248;51.522;7.020;2023-06-19T02:30:04;7.53;;;4.88;;
31638;SDS011;18248;51.522;7.020;2023-06-19T02:33:03;4.43;;;4.03;;
31638;SDS011;18248;51.522;7.020;2023-06-19T02:36:02;8.93;;;5.13;;
31638;SDS011;18248;51.522;7.020;2023-06-19T02:39:05;6.95;;;4.70;;
31638;SDS011;18248;51.522;7.020;2023-06-19T02:42:04;7.88;;;4.57;;
31638;SDS011;18248;51.522;7.020;2023-06-19T02:45:04;4.88;;;4.35;;
31638;SDS011;18248;51.522;7.020;2023-06-19T02:48:04;7.38;;;4.82;;
31638;SDS011;18248;51.522;7.020;2023-06-19T02:51:02;7.63;;;4.82;;
31638;SDS011;18248;51.522;7.020;2023-06-19T02:54:01;6.10;;;4.65;;
31638;SDS011;18248;51.522;7.020;2023-06-19T02:57:00;5.65;;;4.78;;
31638;SDS011;18248;51.522;7.020;2023-06-19T02:59:58;6.55;;;4.68;;
31638;SDS011;18248;51.522;7.020;2023-06-19T03:02:57;5.82;;;4.38;;
31638;SDS011;18248;51.522;7.020;2023-06-19T03:05:55;8.85;;;4.28;;
31638;SDS011;18248;51.522;7.020;2023-06-19T03:08:54;9.32;;;4.80;;
31638;SDS011;18248;51.522;7.020;2023-06-19T03:11:53;7.22;;;5.35;;
31638;SDS011;18248;51.522;7.020;2023-06-19T03:14:51;7.68;;;4.22;;
31638;SDS011;18248;51.522;7.020;2023-06-19T03:17:50;7.88;;;4.53;;
31638;SDS011;18248;51.522;7.020;2023-06-19T03:20:50;6.03;;;4.57;;
31638;SDS011;18248;51.522;7.020;2023-06-19T03:23:48;6.20;;;4.75;;
31638;SDS011;18248;51.522;7.020;2023-06-19T03:26:49;10.73;;;5.55;;
31638;SDS011;18248;51.522;7.020;2023-06-19T03:29:47;7.57;;;5.00;;
31638;SDS011;18248;51.522;7.020;2023-06-19T03:32:46;8.50;;;4.95;;
31638;SDS011;18248;51.522;7.020;2023-06-19T03:35:44;5.95;;;4.47;;
31638;SDS011;18248;51.522;7.020;2023-06-19T03:38:43;10.27;;;4.55;;
31638;SDS011;18248;51.522;7.020;2023-06-19T03:41:41;12.82;;;5.25;;
31638;SDS011;18248;51.522;7.020;2023-06-19T03:44:41;11.13;;;4.55;;
31638;SDS011;18248;51.522;7.020;2023-06-19T03:47:39;9.77;;;5.00;;
31638;SDS011;18248;51.522;7.020;2023-06-19T03:50:38;11.05;;;4.15;;
31638;SDS011;18248;51.522;7.020;2023-06-19T03:53:37;9.57;;;4.18;;
31638;SDS011;18248;51.522;7.020;2023-06-19T03:56:35;6.25;;;4.72;;
31638;SDS011;18248;51.522;7.020;2023-06-19T03:59:34;7.80;;;3.95;;
31638;SDS011;18248;51.522;7.020;2023-06-19T04:02:33;6.60;;;4.40;;
31638;SDS011;18248;51.522;7.020;2023-06-19T04:05:32;5.25;;;4.05;;
31638;SDS011;18248;51.522;7.020;2023-06-19T04:08:31;4.55;;;3.45;;
31638;SDS011;18248;51.522;7.020;2023-06-19T04:11:31;6.38;;;3.90;;
31638;SDS011;18248;51.522;7.020;2023-06-19T04:14:29;6.15;;;3.47;;
31638;SDS011;18248;51.522;7.020;2023-06-19T04:17:28;5.10;;;3.13;;
31638;SDS011;18248;51.522;7.020;2023-06-19T04:20:26;7.25;;;3.50;;
31638;SDS011;18248;51.522;7.020;2023-06-19T04:23:25;5.65;;;3.33;;
31638;SDS011;18248;51.522;7.020;2023-06-19T04:26:25;8.60;;;3.47;;
31638;SDS011;18248;51.522;7.020;2023-06-19T04:29:24;10.43;;;3.63;;
31638;SDS011;18248;51.522;7.020;2023-06-19T04:32:22;5.93;;;3.28;;
31638;SDS011;18248;51.522;7.020;2023-06-19T04:35:21;6.65;;;3.47;;
31638;SDS011;18248;51.522;7.020;2023-06-19T04:38:21;5.00;;;3.38;;
31638;SDS011;18248;51.522;7.020;2023-06-19T04:41:21;5.55;;;3.78;;
31638;SDS011;18248;51.522;7.020;2023-06-19T04:44:20;9.55;;;3.83;;
31638;SDS011;18248;51.522;7.020;2023-06-19T04:47:19;16.23;;;3.83;;
31638;SDS011;18248;51.522;7.020;2023-06-19T04:50:20;8.07;;;3.83;;
31638;SDS011;18248;51.522;7.020;2023-06-19T04:53:19;9.38;;;3.90;;
31638;SDS011;18248;51.522;7.020;2023-06-19T04:56:17;7.75;;;3.22;;
31638;SDS011;18248;51.522;7.020;2023-06-19T04:59:16;6.57;;;3.60;;
31638;SDS011;18248;51.522;7.020;2023-06-19T05:02:16;7.10;;;3.72;;
31638;SDS011;18248;51.522;7.020;2023-06-19T05:05:14;12.48;;;3.40;;
31638;SDS011;18248;51.522;7.020;2023-06-19T05:08:13;6.13;;;3.60;;
31638;SDS011;18248;51.522;7.020;2023-06-19T05:11:12;6.45;;;2.85;;
31638;SDS011;18248;51.522;7.020;2023-06-19T05:14:11;7.80;;;3.00;;
31638;SDS011;18248;51.522;7.020;2023-06-19T05:17:12;3.75;;;2.47;;
31638;SDS011;18248;51.522;7.020;2023-06-19T05:20:10;8.10;;;2.55;;
31638;SDS011;18248;51.522;7.020;2023-06-19T05:23:10;3.25;;;2.60;;
31638;SDS011;18248;51.522;7.020;2023-06-19T05:26:08;8.00;;;3.10;;
31638;SDS011;18248;51.522;7.020;2023-06-19T05:29:07;5.60;;;3.10;;
31638;SDS011;18248;51.522;7.020;2023-06-19T05:32:06;5.85;;;3.20;;
31638;SDS011;18248;51.522;7.020;2023-06-19T05:35:05;8.38;;;3.13;;
31638;SDS011;18248;51.522;7.020;2023-06-19T05:38:04;6.68;;;2.67;;
31638;SDS011;18248;51.522;7.020;2023-06-19T05:41:03;6.35;;;3.28;;
31638;SDS011;18248;51.522;7.020;2023-06-19T05:44:02;8.55;;;3.47;;
31638;SDS011;18248;51.522;7.020;2023-06-19T05:47:00;8.48;;;2.70;;
31638;SDS011;18248;51.522;7.020;2023-06-19T05:49:59;6.82;;;2.90;;
31638;SDS011;18248;51.522;7.020;2023-06-19T05:52:58;4.90;;;3.63;;
31638;SDS011;18248;51.522;7.020;2023-06-19T05:55:56;11.27;;;3.70;;
31638;SDS011;18248;51.522;7.020;2023-06-19T05:58:56;6.30;;;3.30;;
31638;SDS011;18248;51.522;7.020;2023-06-19T06:01:54;7.68;;;3.83;;
31638;SDS011;18248;51.522;7.020;2023-06-19T06:04:53;8.63;;;3.90;;
31638;SDS011;18248;51.522;7.020;2023-06-19T06:07:52;9.25;;;3.28;;
31638;SDS011;18248;51.522;7.020;2023-06-19T06:10:51;9.68;;;3.47;;
31638;SDS011;18248;51.522;7.020;2023-06-19T06:13:50;11.95;;;3.08;;
31638;SDS011;18248;51.522;7.020;2023-06-19T06:16:48;6.90;;;3.22;;
31638;SDS011;18248;51.522;7.020;2023-06-19T06:19:47;4.63;;;3.10;;
31638;SDS011;18248;51.522;7.020;2023-06-19T06:22:45;4.00;;;2.80;;
31638;SDS011;18248;51.522;7.020;2023-06-19T06:25:44;4.30;;;2.70;;
31638;SDS011;18248;51.522;7.020;2023-06-19T06:28:43;10.77;;;2.40;;
31638;SDS011;18248;51.522;7.020;2023-06-19T06:31:45;11.00;;;2.83;;
31638;SDS011;18248;51.522;7.020;2023-06-19T06:34:44;4.65;;;2.05;;
31638;SDS011;18248;51.522;7.020;2023-06-19T06:37:43;2.58;;;1.90;;
31638;SDS011;18248;51.522;7.020;2023-06-19T06:40:44;6.30;;;2.00;;
31638;SDS011;18248;51.522;7.020;2023-06-19T06:43:42;4.57;;;1.75;;
31638;SDS011;18248;51.522;7.020;2023-06-19T06:46:41;10.05;;;2.15;;
31638;SDS011;18248;51.522;7.020;2023-06-19T06:49:39;5.35;;;2.67;;
31638;SDS011;18248;51.522;7.020;2023-06-19T06:52:38;6.97;;;2.30;;
31638;SDS011;18248;51.522;7.020;2023-06-19T06:55:36;8.63;;;2.88;;
31638;SDS011;18248;51.522;7.020;2023-06-19T06:58:35;7.07;;;2.55;;
31638;SDS011;18248;51.522;7.020;2023-06-19T07:01:35;13.45;;;2.97;;
31638;SDS011;18248;51.522;7.020;2023-06-19T07:04:33;5.57;;;2.80;;
31638;SDS011;18248;51.522;7.020;2023-06-19T07:07:32;3.83;;;2.42;;
31638;SDS011;18248;51.522;7.020;2023-06-19T07:10:31;6.22;;;2.55;;
31638;SDS011;18248;51.522;7.020;2023-06-19T07:13:29;4.22;;;2.17;;
31638;SDS011;18248;51.522;7.020;2023-06-19T07:16:28;6.55;;;2.72;;
31638;SDS011;18248;51.522;7.020;2023-06-19T07:19:27;7.68;;;2.72;;
31638;SDS011;18248;51.522;7.020;2023-06-19T07:22:25;4.90;;;2.53;;
31638;SDS011;18248;51.522;7.020;2023-06-19T07:25:24;4.03;;;3.03;;
31638;SDS011;18248;51.522;7.020;2023-06-19T07:28:23;5.57;;;2.38;;
31638;SDS011;18248;51.522;7.020;2023-06-19T07:31:21;4.50;;;2.53;;
31638;SDS011;18248;51.522;7.020;2023-06-19T07:34:20;9.85;;;2.67;;
31638;SDS011;18248;51.522;7.020;2023-06-19T07:37:19;6.45;;;2.70;;
31638;SDS011;18248;51.522;7.020;2023-06-19T07:40:19;8.55;;;2.30;;
31638;SDS011;18248;51.522;7.020;2023-06-19T07:43:19;6.10;;;2.40;;
31638;SDS011;18248;51.522;7.020;2023-06-19T07:46:20;8.88;;;2.72;;
31638;SDS011;18248;51.522;7.020;2023-06-19T07:49:18;8.75;;;2.90;;
31638;SDS011;18248;51.522;7.020;2023-06-19T07:52:17;12.40;;;2.35;;
31638;SDS011;18248;51.522;7.020;2023-06-19T07:55:15;5.30;;;2.30;;
31638;SDS011;18248;51.522;7.020;2023-06-19T07:58:14;4.38;;;2.65;;
31638;SDS011;18248;51.522;7.020;2023-06-19T08:01:12;8.90;;;3.20;;
31638;SDS011;18248;51.522;7.020;2023-06-19T08:04:11;8.30;;;2.70;;
31638;SDS011;18248;51.522;7.020;2023-06-19T08:07:09;11.05;;;2.50;;
31638;SDS011;18248;51.522;7.020;2023-06-19T08:10:09;7.35;;;2.92;;
31638;SDS011;18248;51.522;7.020;2023-06-19T08:13:07;6.55;;;2.53;;
31638;SDS011;18248;51.522;7.020;2023-06-19T08:16:09;6.50;;;2.72;;
31638;SDS011;18248;51.522;7.020;2023-06-19T08:19:08;3.72;;;2.05;;
31638;SDS011;18248;51.522;7.020;2023-06-19T08:22:08;7.15;;;2.60;;
31638;SDS011;18248;51.522;7.020;2023-06-19T08:25:07;7.72;;;2.65;;
31638;SDS011;18248;51.522;7.020;2023-06-19T08:28:06;7.32;;;2.38;;
31638;SDS011;18248;51.522;7.020;2023-06-19T08:31:04;8.32;;;2.05;;
31638;SDS011;18248;51.522;7.020;2023-06-19T08:34:03;5.30;;;1.75;;
31638;SDS011;18248;51.522;7.020;2023-06-19T08:37:05;6.07;;;1.97;;
31638;SDS011;18248;51.522;7.020;2023-06-19T08:40:04;16.48;;;2.30;;
31638;SDS011;18248;51.522;7.020;2023-06-19T08:43:07;4.97;;;2.10;;
31638;SDS011;18248;51.522;7.020;2023-06-19T08:46:15;6.88;;;2.47;;
31638;SDS011;18248;51.522;7.020;2023-06-19T08:49:16;7.38;;;2.30;;
31638;SDS011;18248;51.522;7.020;2023-06-19T08:52:15;4.72;;;2.65;;
31638;SDS011;18248;51.522;7.020;2023-06-19T08:55:13;6.90;;;2.20;;
31638;SDS011;18248;51.522;7.020;2023-06-19T08:58:19;8.77;;;2.33;;
31638;SDS011;18248;51.522;7.020;2023-06-19T09:01:22;8.50;;;2.00;;
31638;SDS011;18248;51.522;7.020;2023-06-19T09:04:23;4.82;;;2.10;;
31638;SDS011;18248;51.522;7.020;2023-06-19T09:07:28;6.68;;;2.00;;
31638;SDS011;18248;51.522;7.020;2023-06-19T09:10:27;6.03;;;2.45;;
31638;SDS011;18248;51.522;7.020;2023-06-19T09:13:26;9.02;;;2.97;;
31638;SDS011;18248;51.522;7.020;2023-06-19T09:16:36;12.50;;;2.85;;
31638;SDS011;18248;51.522;7.020;2023-06-19T09:19:47;11.25;;;2.47;;
31638;SDS011;18248;51.522;7.020;2023-06-19T09:22:46;6.60;;;2.60;;
31638;SDS011;18248;51.522;7.020;2023-06-19T09:25:51;5.20;;;2.55;;
31638;SDS011;18248;51.522;7.020;2023-06-19T09:28:52;9.07;;;2.60;;
31638;SDS011;18248;51.522;7.020;2023-06-19T09:31:53;6.05;;;3.33;;
31638;SDS011;18248;51.522;7.020;2023-06-19T09:34:55;7.75;;;3.08;;
31638;SDS011;18248;51.522;7.020;2023-06-19T09:37:58;8.48;;;3.33;;
31638;SDS011;18248;51.522;7.020;2023-06-19T09:41:00;6.72;;;3.28;;
31638;SDS011;18248;51.522;7.020;2023-06-19T09:43:59;6.63;;;3.42;;
31638;SDS011;18248;51.522;7.020;2023-06-19T09:47:00;6.78;;;3.13;;
31638;SDS011;18248;51.522;7.020;2023-06-19T09:50:06;9.85;;;3.20;;
31638;SDS011;18248;51.522;7.020;2023-06-19T09:53:06;7.45;;;2.85;;
31638;SDS011;18248;51.522;7.020;2023-06-19T09:56:05;11.48;;;2.85;;
31638;SDS011;18248;51.522;7.020;2023-06-19T09:59:07;5.85;;;2.70;;
31638;SDS011;18248;51.522;7.020;2023-06-19T10:02:07;8.05;;;2.92;;
31638;SDS011;18248;51.522;7.020;2023-06-19T10:05:10;4.60;;;2.65;;
31638;SDS011;18248;51.522;7.020;2023-06-19T10:08:12;7.93;;;2.80;;
31638;SDS011;18248;51.522;7.020;2023-06-19T10:11:11;4.82;;;2.90;;
31638;SDS011;18248;51.522;7.020;2023-06-19T10:14:09;7.07;;;2.80;;
31638;SDS011;18248;51.522;7.020;2023-06-19T10:17:08;8.15;;;2.90;;
31638;SDS011;18248;51.522;7.020;2023-06-19T10:20:17;7.55;;;3.20;;
31638;SDS011;18248;51.522;7.020;2023-06-19T10:26:34;6.43;;;3.05;;
31638;SDS011;18248;51.522;7.020;2023-06-19T10:29:39;8.60;;;3.10;;
31638;SDS011;18248;51.522;7.020;2023-06-19T10:32:39;8.55;;;3.20;;
31638;SDS011;18248;51.522;7.020;2023-06-19T10:35:38;7.88;;;3.00;;
31638;SDS011;18248;51.522;7.020;2023-06-19T10:38:40;5.85;;;3.25;;
31638;SDS011;18248;51.522;7.020;2023-06-19T10:41:39;12.25;;;3.63;;
31638;SDS011;18248;51.522;7.020;2023-06-19T10:44:38;8.77;;;6.00;;
31638;SDS011;18248;51.522;7.020;2023-06-19T10:47:37;12.20;;;4.53;;
31638;SDS011;18248;51.522;7.020;2023-06-19T10:50:37;10.18;;;4.30;;
31638;SDS011;18248;51.522;7.020;2023-06-19T10:53:39;10.45;;;4.13;;
31638;SDS011;18248;51.522;7.020;2023-06-19T10:56:38;6.60;;;3.42;;
31638;SDS011;18248;51.522;7.020;2023-06-19T10:59:36;6.47;;;3.75;;
31638;SDS011;18248;51.522;7.020;2023-06-19T11:02:38;8.55;;;3.17;;
31638;SDS011;18248;51.522;7.020;2023-06-19T11:05:38;4.88;;;2.97;;
31638;SDS011;18248;51.522;7.020;2023-06-19T11:08:50;8.82;;;2.95;;
31638;SDS011;18248;51.522;7.020;2023-06-19T11:11:49;13.02;;;4.72;;
31638;SDS011;18248;51.522;7.020;2023-06-19T11:14:49;8.07;;;4.22;;
31638;SDS011;18248;51.522;7.020;2023-06-19T11:17:48;7.15;;;3.50;;
31638;SDS011;18248;51.522;7.020;2023-06-19T11:20:48;7.32;;;3.63;;
31638;SDS011;18248;51.522;7.020;2023-06-19T11:23:48;6.93;;;3.88;;
31638;SDS011;18248;51.522;7.020;2023-06-19T11:26:47;6.15;;;3.72;;
31638;SDS011;18248;51.522;7.020;2023-06-19T11:29:47;6.50;;;3.38;;
31638;SDS011;18248;51.522;7.020;2023-06-19T11:32:46;8.20;;;3.80;;
31638;SDS011;18248;51.522;7.020;2023-06-19T11:35:49;6.15;;;4.00;;
31638;SDS011;18248;51.522;7.020;2023-06-19T11:38:48;5.45;;;4.03;;
31638;SDS011;18248;51.522;7.020;2023-06-19T11:41:47;5.65;;;4.07;;
31638;SDS011;18248;51.522;7.020;2023-06-19T11:44:53;7.18;;;3.75;;
31638;SDS011;18248;51.522;7.020;2023-06-19T11:47:53;9.77;;;4.45;;
31638;SDS011;18248;51.522;7.020;2023-06-19T11:50:52;6.65;;;4.28;;
31638;SDS011;18248;51.522;7.020;2023-06-19T11:53:51;6.30;;;4.28;;
31638;SDS011;18248;51.522;7.020;2023-06-19T11:56:51;11.95;;;4.70;;
31638;SDS011;18248;51.522;7.020;2023-06-19T11:59:49;7.82;;;4.05;;
31638;SDS011;18248;51.522;7.020;2023-06-19T12:02:48;7.25;;;4.47;;
31638;SDS011;18248;51.522;7.020;2023-06-19T12:05:46;10.82;;;4.25;;
31638;SDS011;18248;51.522;7.020;2023-06-19T12:08:45;11.23;;;4.75;;
31638;SDS011;18248;51.522;7.020;2023-06-19T12:11:44;8.05;;;4.47;;
31638;SDS011;18248;51.522;7.020;2023-06-19T12:14:42;8.25;;;4.65;;
31638;SDS011;18248;51.522;7.020;2023-06-19T12:17:41;13.77;;;4.50;;
31638;SDS011;18248;51.522;7.020;2023-06-19T12:20:40;10.07;;;4.60;;
31638;SDS011;18248;51.522;7.020;2023-06-19T12:23:41;7.95;;;4.18;;
31638;SDS011;18248;51.522;7.020;2023-06-19T12:26:39;8.60;;;4.35;;
31638;SDS011;18248;51.522;7.020;2023-06-19T12:29:38;5.88;;;4.10;;
31638;SDS011;18248;51.522;7.020;2023-06-19T12:32:37;5.88;;;4.28;;
31638;SDS011;18248;51.522;7.020;2023-06-19T12:35:36;7.82;;;4.50;;
31638;SDS011;18248;51.522;7.020;2023-06-19T12:38:39;8.68;;;4.45;;
31638;SDS011;18248;51.522;7.020;2023-06-19T12:41:38;6.00;;;4.15;;
31638;SDS011;18248;51.522;7.020;2023-06-19T12:44:37;7.40;;;3.60;;
31638;SDS011;18248;51.522;7.020;2023-06-19T12:47:39;7.50;;;4.65;;
31638;SDS011;18248;51.522;7.020;2023-06-19T12:50:37;6.18;;;4.10;;
31638;SDS011;18248;51.522;7.020;2023-06-19T12:53:36;8.80;;;4.50;;
31638;SDS011;18248;51.522;7.020;2023-06-19T12:56:37;7.63;;;4.13;;
31638;SDS011;18248;51.522;7.020;2023-06-19T12:59:36;8.00;;;4.65;;
31638;SDS011;18248;51.522;7.020;2023-06-19T13:02:35;7.93;;;4.32;;
31638;SDS011;18248;51.522;7.020;2023-06-19T13:05:33;15.20;;;4.88;;
31638;SDS011;18248;51.522;7.020;2023-06-19T13:08:32;10.43;;;4.63;;
31638;SDS011;18248;51.522;7.020;2023-06-19T13:11:30;7.90;;;4.75;;
31638;SDS011;18248;51.522;7.020;2023-06-19T13:14:29;5.63;;;4.22;;
31638;SDS011;18248;51.522;7.020;2023-06-19T13:17:29;7.55;;;4.40;;
31638;SDS011;18248;51.522;7.020;2023-06-19T13:20:29;6.38;;;4.10;;
31638;SDS011;18248;51.522;7.020;2023-06-19T13:23:27;11.75;;;4.07;;
31638;SDS011;18248;51.522;7.020;2023-06-19T13:26:26;9.40;;;4.72;;
31638;SDS011;18248;51.522;7.020;2023-06-19T13:29:25;8.50;;;4.10;;
31638;SDS011;18248;51.522;7.020;2023-06-19T13:32:24;6.15;;;3.92;;
31638;SDS011;18248;51.522;7.020;2023-06-19T13:35:23;18.60;;;4.78;;
31638;SDS011;18248;51.522;7.020;2023-06-19T13:38:21;9.45;;;4.40;;
31638;SDS011;18248;51.522;7.020;2023-06-19T13:41:20;10.43;;;4.43;;
31638;SDS011;18248;51.522;7.020;2023-06-19T13:44:21;10.65;;;4.13;;
31638;SDS011;18248;51.522;7.020;2023-06-19T13:47:21;8.35;;;4.68;;
31638;SDS011;18248;51.522;7.020;2023-06-19T13:50:20;5.75;;;4.10;;
31638;SDS011;18248;51.522;7.020;2023-06-19T13:53:18;5.90;;;4.07;;
31638;SDS011;18248;51.522;7.020;2023-06-19T13:56:17;7.07;;;4.03;;
31638;SDS011;18248;51.522;7.020;2023-06-19T13:59:16;6.03;;;4.28;;
31638;SDS011;18248;51.522;7.020;2023-06-19T14:02:16;9.73;;;3.85;;
31638;SDS011;18248;51.522;7.020;2023-06-19T14:05:15;9.40;;;4.03;;
31638;SDS011;18248;51.522;7.020;2023-06-19T14:08:14;8.40;;;4.15;;
31638;SDS011;18248;51.522;7.020;2023-06-19T14:11:13;10.13;;;4.10;;
31638;SDS011;18248;51.522;7.020;2023-06-19T14:14:11;6.75;;;3.75;;
31638;SDS011;18248;51.522;7.020;2023-06-19T14:17:10;8.82;;;3.70;;
31638;SDS011;18248;51.522;7.020;2023-06-19T14:20:10;5.63;;;3.60;;
31638;SDS011;18248;51.522;7.020;2023-06-19T14:23:09;8.57;;;4.20;;
31638;SDS011;18248;51.522;7.020;2023-06-19T14:26:11;13.57;;;4.15;;
31638;SDS011;18248;51.522;7.020;2023-06-19T14:29:10;5.97;;;3.95;;
31638;SDS011;18248;51.522;7.020;2023-06-19T14:32:09;7.20;;;4.00;;
31638;SDS011;18248;51.522;7.020;2023-06-19T14:35:07;6.60;;;3.78;;
31638;SDS011;18248;51.522;7.020;2023-06-19T14:38:06;11.65;;;3.92;;
31638;SDS011;18248;51.522;7.020;2023-06-19T14:41:04;5.50;;;3.83;;
31638;SDS011;18248;51.522;7.020;2023-06-19T14:44:04;5.13;;;3.50;;
31638;SDS011;18248;51.522;7.020;2023-06-19T14:47:04;10.88;;;5.53;;
31638;SDS011;18248;51.522;7.020;2023-06-19T14:50:03;10.52;;;4.30;;
31638;SDS011;18248;51.522;7.020;2023-06-19T14:53:03;5.45;;;3.63;;
31638;SDS011;18248;51.522;7.020;2023-06-19T14:56:01;15.27;;;4.43;;
31638;SDS011;18248;51.522;7.020;2023-06-19T14:59:00;6.80;;;3.60;;
31638;SDS011;18248;51.522;7.020;2023-06-19T15:01:59;8.25;;;3.78;;
31638;SDS011;18248;51.522;7.020;2023-06-19T15:04:57;7.25;;;4.05;;
31638;SDS011;18248;51.522;7.020;2023-06-19T15:07:56;5.82;;;3.63;;
31638;SDS011;18248;51.522;7.020;2023-06-19T15:10:54;7.10;;;3.72;;
31638;SDS011;18248;51.522;7.020;2023-06-19T15:13:53;6.80;;;3.55;;
31638;SDS011;18248;51.522;7.020;2023-06-19T15:16:51;5.80;;;3.33;;
31638;SDS011;18248;51.522;7.020;2023-06-19T15:19:50;10.60;;;4.07;;
31638;SDS011;18248;51.522;7.020;2023-06-19T15:22:49;8.52;;;3.90;;
31638;SDS011;18248;51.522;7.020;2023-06-19T15:25:48;5.47;;;3.90;;
31638;SDS011;18248;51.522;7.020;2023-06-19T15:28:47;8.23;;;3.88;;
31638;SDS011;18248;51.522;7.020;2023-06-19T15:31:45;8.10;;;3.83;;
31638;SDS011;18248;51.522;7.020;2023-06-19T15:34:44;5.70;;;4.00;;
31638;SDS011;18248;51.522;7.020;2023-06-19T15:37:44;7.55;;;3.80;;
31638;SDS011;18248;51.522;7.020;2023-06-19T15:40:43;8.38;;;4.20;;
31638;SDS011;18248;51.522;7.020;2023-06-19T15:43:41;7.10;;;4.38;;
31638;SDS011;18248;51.522;7.020;2023-06-19T15:46:40;9.27;;;4.00;;
31638;SDS011;18248;51.522;7.020;2023-06-19T15:49:39;6.30;;;3.20;;
31638;SDS011;18248;51.522;7.020;2023-06-19T15:52:37;10.20;;;4.25;;
31638;SDS011;18248;51.522;7.020;2023-06-19T15:55:36;6.07;;;3.95;;
31638;SDS011;18248;51.522;7.020;2023-06-19T15:58:36;7.18;;;4.03;;
31638;SDS011;18248;51.522;7.020;2023-06-19T16:01:34;8.43;;;4.10;;
31638;SDS011;18248;51.522;7.020;2023-06-19T16:04:33;7.07;;;4.05;;
31638;SDS011;18248;51.522;7.020;2023-06-19T16:07:31;5.72;;;3.55;;
31638;SDS011;18248;51.522;7.020;2023-06-19T16:10:30;8.05;;;3.90;;
31638;SDS011;18248;51.522;7.020;2023-06-19T16:13:28;8.85;;;3.50;;
31638;SDS011;18248;51.522;7.020;2023-06-19T16:16:27;7.03;;;3.72;;
31638;SDS011;18248;51.522;7.020;2023-06-19T16:19:26;8.02;;;3.90;;
31638;SDS011;18248;51.522;7.020;2023-06-19T16:22:24;4.20;;;3.58;;
31638;SDS011;18248;51.522;7.020;2023-06-19T16:25:23;4.90;;;3.50;;
31638;SDS011;18248;51.522;7.020;2023-06-19T16:28:22;8.77;;;4.68;;
31638;SDS011;18248;51.522;7.020;2023-06-19T16:31:21;8.88;;;4.25;;
31638;SDS011;18248;51.522;7.020;2023-06-19T16:34:20;6.60;;;4.07;;
31638;SDS011;18248;51.522;7.020;2023-06-19T16:37:20;4.80;;;3.70;;
31638;SDS011;18248;51.522;7.020;2023-06-19T16:40:19;5.18;;;3.80;;
31638;SDS011;18248;51.522;7.020;2023-06-19T16:43:18;6.72;;;3.78;;
31638;SDS011;18248;51.522;7.020;2023-06-19T16:46:17;9.55;;;3.67;;
31638;SDS011;18248;51.522;7.020;2023-06-19T16:49:16;6.03;;;3.95;;
31638;SDS011;18248;51.522;7.020;2023-06-19T16:52:15;8.15;;;4.43;;
31638;SDS011;18248;51.522;7.020;2023-06-19T16:55:13;6.10;;;3.90;;
31638;SDS011;18248;51.522;7.020;2023-06-19T16:58:12;8.52;;;3.88;;
31638;SDS011;18248;51.522;7.020;2023-06-19T17:01:11;12.27;;;4.38;;
31638;SDS011;18248;51.522;7.020;2023-06-19T17:04:10;8.38;;;4.25;;
31638;SDS011;18248;51.522;7.020;2023-06-19T17:07:09;8.02;;;4.07;;
31638;SDS011;18248;51.522;7.020;2023-06-19T17:10:07;6.28;;;3.75;;
31638;SDS011;18248;51.522;7.020;2023-06-19T17:13:07;8.32;;;4.35;;
31638;SDS011;18248;51.522;7.020;2023-06-19T17:16:06;7.75;;;3.97;;
31638;SDS011;18248;51.522;7.020;2023-06-19T17:19:04;6.68;;;3.95;;
31638;SDS011;18248;51.522;7.020;2023-06-19T17:22:03;8.98;;;4.05;;
31638;SDS011;18248;51.522;7.020;2023-06-19T17:25:02;10.85;;;4.22;;
31638;SDS011;18248;51.522;7.020;2023-06-19T17:28:01;7.13;;;4.25;;
31638;SDS011;18248;51.522;7.020;2023-06-19T17:30:59;7.35;;;4.32;;
31638;SDS011;18248;51.522;7.020;2023-06-19T17:33:58;6.78;;;4.20;;
31638;SDS011;18248;51.522;7.020;2023-06-19T17:36:56;5.53;;;3.70;;
31638;SDS011;18248;51.522;7.020;2023-06-19T17:39:55;5.50;;;3.88;;
31638;SDS011;18248;51.522;7.020;2023-06-19T17:42:53;5.68;;;3.78;;
31638;SDS011;18248;51.522;7.020;2023-06-19T17:45:52;6.88;;;4.25;;
31638;SDS011;18248;51.522;7.020;2023-06-19T17:48:51;5.57;;;4.38;;
31638;SDS011;18248;51.522;7.020;2023-06-19T17:51:51;4.90;;;4.32;;
31638;SDS011;18248;51.522;7.020;2023-06-19T17:54:53;4.43;;;3.70;;
31638;SDS011;18248;51.522;7.020;2023-06-19T17:57:52;7.30;;;4.70;;
31638;SDS011;18248;51.522;7.020;2023-06-19T18:00:51;5.82;;;4.28;;